New Orleans, Louisiana
Traffic Map
Current Weather Conditions
New Orleans, Louisiana
Clear
Clear
23°
Feels Like: 23°
Wind Chill: 23° Ceiling: Unl
Heat Index: 23° Visibility: 10mi
Dew Point: Wind: 16mph
Humidity: 39% Direction: 340° (NNW)
Pressure: 30in Gusts: 0mph
Raw Report DataKNEW 232253Z 34014KT 10SM CLR 23/08 A3000 RMK AO2 SLP154 T02280083
Traffic Incident Summary
Active as of:
Severity:
Category:
InformationThere was an issue retrieving the traffic information for this location. Please try a different location or try again shortly.
Advertisements